createdAt,value
2018-06-02T00:00:25.319Z,26.7
2018-06-02T00:01:35.005Z,26.81
2018-06-02T00:02:44.939Z,26.77
2018-06-02T00:03:54.113Z,26.75
2018-06-02T00:05:03.329Z,26.84
2018-06-02T00:06:13.024Z,26.8
2018-06-02T00:07:22.452Z,26.77
2018-06-02T00:08:31.369Z,26.77
2018-06-02T00:09:40.800Z,26.7
2018-06-02T00:10:50.477Z,26.75
2018-06-02T00:11:59.904Z,26.67
2018-06-02T00:13:08.804Z,26.7
2018-06-02T00:14:18.247Z,26.69
2018-06-02T00:15:27.687Z,26.62
2018-06-02T00:16:37.127Z,26.69
2018-06-02T00:17:46.554Z,26.73
2018-06-02T00:18:55.709Z,26.73
2018-06-02T00:20:05.390Z,26.75
2018-06-02T00:21:15.088Z,26.69
2018-06-02T00:22:24.509Z,26.72
2018-06-02T00:23:33.930Z,26.58
2018-06-02T00:24:43.617Z,26.69
2018-06-02T00:25:53.040Z,26.63
2018-06-02T00:27:02.449Z,26.72
2018-06-02T00:28:11.344Z,26.65
2018-06-02T00:29:20.504Z,26.67
2018-06-02T00:30:29.970Z,26.66
2018-06-02T00:31:39.383Z,26.6
2018-06-02T00:32:48.805Z,26.65
2018-06-02T00:33:57.703Z,26.67
2018-06-02T00:35:07.374Z,26.66
2018-06-02T00:36:16.543Z,26.62
2018-06-02T00:37:25.707Z,26.62
2018-06-02T00:38:34.871Z,26.65
2018-06-02T00:39:44.540Z,26.65
2018-06-02T00:40:53.943Z,26.65
2018-06-02T00:42:03.891Z,26.72
2018-06-02T00:43:12.818Z,26.69
2018-06-02T00:44:21.982Z,26.65
2018-06-02T00:45:31.677Z,26.63
2018-06-02T00:46:41.119Z,26.66
2018-06-02T00:47:50.816Z,26.7
2018-06-02T00:48:59.712Z,26.66
2018-06-02T00:50:09.138Z,26.54
2018-06-02T00:51:18.284Z,26.51
2018-06-02T00:52:28.209Z,26.67
2018-06-02T00:53:37.889Z,26.57
2018-06-02T00:54:47.305Z,26.54
2018-06-02T00:55:56.203Z,26.57
2018-06-02T00:57:05.631Z,26.6
2018-06-02T00:58:15.306Z,26.57
2018-06-02T00:59:24.459Z,26.57
2018-06-02T01:00:33.611Z,26.55
2018-06-02T01:01:43.333Z,26.5
2018-06-02T01:02:52.493Z,26.54
2018-06-02T01:04:01.942Z,26.54
2018-06-02T01:05:11.135Z,26.6
2018-06-02T01:06:20.848Z,26.58
2018-06-02T01:07:30.289Z,26.54
2018-06-02T01:08:39.705Z,26.55
2018-06-02T01:09:48.895Z,26.62
2018-06-02T01:10:58.600Z,26.62
2018-06-02T01:12:08.084Z,26.52
2018-06-02T01:13:17.260Z,26.5
2018-06-02T01:14:26.960Z,26.54
2018-06-02T01:15:36.112Z,26.51
2018-06-02T01:16:45.333Z,26.55
2018-06-02T01:17:54.250Z,26.47
2018-06-02T01:19:03.752Z,26.51
2018-06-02T01:20:13.168Z,26.52
2018-06-02T01:21:22.331Z,26.51
2018-06-02T01:22:31.991Z,26.48
2018-06-02T01:23:41.929Z,26.47
2018-06-02T01:24:51.096Z,26.52
2018-06-02T01:26:00.244Z,26.47
2018-06-02T01:27:09.421Z,26.51
2018-06-02T01:28:18.850Z,26.52
2018-06-02T01:29:28.272Z,26.43
2018-06-02T01:30:37.167Z,26.48
2018-06-02T01:31:46.330Z,26.45
2018-06-02T01:32:55.737Z,26.44
2018-06-02T01:34:05.182Z,26.45
2018-06-02T01:35:14.611Z,26.5
2018-06-02T01:36:23.506Z,26.47
2018-06-02T01:37:32.944Z,26.44
2018-06-02T01:38:42.362Z,26.48
2018-06-02T01:39:51.768Z,26.44
2018-06-02T01:41:01.692Z,26.43
2018-06-02T01:42:10.587Z,26.44
2018-06-02T01:43:19.231Z,26.47
2018-06-02T01:44:28.655Z,26.43
2018-06-02T01:45:38.647Z,26.43
2018-06-02T01:46:47.816Z,26.4
2018-06-02T01:47:56.987Z,26.44
2018-06-02T01:49:06.135Z,26.47
2018-06-02T01:50:15.289Z,26.48
2018-06-02T01:51:24.961Z,26.43
2018-06-02T01:52:34.880Z,26.44
2018-06-02T01:53:44.842Z,26.45
2018-06-02T01:54:53.989Z,26.39
2018-06-02T01:56:03.389Z,26.35
2018-06-02T01:57:12.796Z,26.43
2018-06-02T01:58:21.938Z,26.4
2018-06-02T01:59:31.626Z,26.4
2018-06-02T02:00:41.592Z,26.43
2018-06-02T02:01:50.767Z,26.35
2018-06-02T02:03:00.468Z,26.39
2018-06-02T02:04:09.878Z,26.4
2018-06-02T02:05:19.555Z,26.43
2018-06-02T02:06:28.731Z,26.35
2018-06-02T02:07:37.885Z,26.4
2018-06-02T02:08:47.047Z,26.33
2018-06-02T02:09:56.492Z,26.39
2018-06-02T02:11:05.651Z,26.39
2018-06-02T02:12:15.333Z,26.33
2018-06-02T02:13:24.763Z,26.37
2018-06-02T02:14:34.212Z,26.36
2018-06-02T02:15:43.892Z,26.32
2018-06-02T02:16:53.591Z,26.32
2018-06-02T02:18:03.006Z,26.36
2018-06-02T02:19:12.176Z,26.32
2018-06-02T02:20:21.328Z,26.33
2018-06-02T02:21:30.748Z,26.33
2018-06-02T02:22:39.925Z,26.33
2018-06-02T02:23:49.603Z,26.33
2018-06-02T02:24:59.543Z,26.32
2018-06-02T02:26:08.969Z,26.33
2018-06-02T02:27:18.651Z,26.28
2018-06-02T02:28:27.803Z,26.29
2018-06-02T02:29:36.696Z,26.33
2018-06-02T02:30:46.633Z,26.29
2018-06-02T02:31:56.315Z,26.25
2018-06-02T02:33:05.492Z,26.28
2018-06-02T02:34:15.000Z,26.35
2018-06-02T02:35:24.448Z,26.36
2018-06-02T02:36:34.126Z,26.26
2018-06-02T02:37:43.795Z,26.25
2018-06-02T02:38:53.483Z,26.33
2018-06-02T02:40:03.453Z,26.3
2018-06-02T02:41:12.887Z,26.25
2018-06-02T02:42:22.075Z,26.33
2018-06-02T02:43:32.026Z,26.33
2018-06-02T02:44:41.968Z,26.26
2018-06-02T02:45:51.641Z,26.29
2018-06-02T02:47:01.306Z,26.3
2018-06-02T02:48:10.733Z,26.29
2018-06-02T02:49:20.231Z,26.25
2018-06-02T02:50:29.905Z,26.2
2018-06-02T02:51:39.595Z,26.29
2018-06-02T02:52:49.581Z,26.25
2018-06-02T02:53:58.755Z,26.26
2018-06-02T02:55:08.245Z,26.2
2018-06-02T02:56:18.208Z,26.28
2018-06-02T02:57:27.631Z,26.25
2018-06-02T02:58:37.062Z,26.2
2018-06-02T02:59:47.042Z,26.28
2018-06-02T03:00:56.761Z,26.2
2018-06-02T03:02:06.468Z,26.26
2018-06-02T03:03:15.636Z,26.2
2018-06-02T03:04:24.801Z,26.21
2018-06-02T03:05:34.264Z,26.23
2018-06-02T03:06:44.230Z,26.28
2018-06-02T03:07:54.190Z,26.21
2018-06-02T03:09:03.874Z,26.23
2018-06-02T03:10:13.825Z,26.2
2018-06-02T03:11:22.986Z,26.21
2018-06-02T03:12:32.393Z,26.21
2018-06-02T03:13:41.841Z,26.09
2018-06-02T03:14:51.813Z,26.21
2018-06-02T03:16:00.964Z,26.09
2018-06-02T03:17:10.125Z,26.2
2018-06-02T03:18:19.278Z,26.1
2018-06-02T03:19:28.747Z,26.13
2018-06-02T03:20:37.908Z,26.07
2018-06-02T03:21:47.056Z,26.12
2018-06-02T03:22:56.734Z,26.09
2018-06-02T03:24:06.193Z,26.13
2018-06-02T03:25:15.869Z,26.12
2018-06-02T03:26:25.277Z,26.13
2018-06-02T03:27:34.698Z,26.12
2018-06-02T03:28:44.361Z,26.12
2018-06-02T03:29:53.810Z,26.12
2018-06-02T03:31:02.973Z,26.1
2018-06-02T03:32:12.947Z,26.15
2018-06-02T03:33:22.352Z,26.1
2018-06-02T03:34:31.242Z,26.15
2018-06-02T03:35:40.924Z,26.12
2018-06-02T03:36:50.325Z,26.1
2018-06-02T03:37:59.721Z,26.13
2018-06-02T03:39:08.364Z,26.13
2018-06-02T03:40:18.052Z,26.15
2018-06-02T03:41:27.459Z,25.99
2018-06-02T03:42:36.880Z,26.15
2018-06-02T03:43:46.287Z,25.98
2018-06-02T03:44:55.968Z,26.09
2018-06-02T03:46:04.872Z,25.98
2018-06-02T03:47:14.571Z,26.06
2018-06-02T03:48:23.997Z,25.99
2018-06-02T03:49:33.420Z,26.01
2018-06-02T03:50:42.563Z,26.01
2018-06-02T03:51:51.737Z,25.99
2018-06-02T03:53:01.152Z,26.07
2018-06-02T03:54:10.821Z,26.01
2018-06-02T03:55:19.971Z,26.1
2018-06-02T03:56:29.396Z,25.99
2018-06-02T03:57:38.555Z,26.13
2018-06-02T03:58:47.720Z,25.97
2018-06-02T03:59:56.619Z,25.97
2018-06-02T04:01:05.259Z,26.02
2018-06-02T04:02:14.935Z,26.01
2018-06-02T04:03:24.351Z,25.97
2018-06-02T04:04:34.038Z,25.94
2018-06-02T04:05:43.709Z,25.98
2018-06-02T04:06:52.888Z,25.98
2018-06-02T04:08:01.781Z,25.98
2018-06-02T04:09:10.947Z,26.06
2018-06-02T04:10:20.376Z,25.98
2018-06-02T04:11:29.269Z,26.02
2018-06-02T04:12:38.666Z,25.99
2018-06-02T04:13:48.073Z,25.95
2018-06-02T04:14:57.501Z,26.05
2018-06-02T04:16:06.912Z,25.98
2018-06-02T04:17:17.086Z,25.98
2018-06-02T04:18:26.243Z,25.94
2018-06-02T04:19:35.925Z,26.1
2018-06-02T04:20:45.602Z,26.05
2018-06-02T04:21:55.292Z,26.06
2018-06-02T04:23:04.720Z,26.01
2018-06-02T04:24:14.661Z,25.99
2018-06-02T04:25:24.336Z,25.94
2018-06-02T04:26:33.750Z,25.99
2018-06-02T04:27:43.710Z,25.98
2018-06-02T04:28:53.891Z,25.95
2018-06-02T04:30:02.799Z,26.06
2018-06-02T04:31:11.698Z,25.94
2018-06-02T04:32:20.859Z,26.01
2018-06-02T04:33:30.288Z,25.97
2018-06-02T04:34:39.962Z,26.05
2018-06-02T04:35:49.371Z,25.95
2018-06-02T04:36:59.063Z,25.94
2018-06-02T04:38:08.492Z,26.06
2018-06-02T04:39:17.653Z,26.09
2018-06-02T04:40:27.595Z,25.92
2018-06-02T04:41:37.458Z,26.06
2018-06-02T04:42:47.350Z,25.97
2018-06-02T04:43:56.776Z,26.02
2018-06-02T04:45:06.209Z,25.92
2018-06-02T04:46:15.631Z,25.99
2018-06-02T04:47:25.056Z,25.94
2018-06-02T04:48:34.229Z,25.9
2018-06-02T04:49:44.197Z,25.92
2018-06-02T04:50:53.876Z,25.97
2018-06-02T04:52:03.304Z,26.01
2018-06-02T04:53:12.727Z,25.95
2018-06-02T04:54:22.401Z,25.98
2018-06-02T04:55:31.305Z,25.97
2018-06-02T04:56:40.466Z,26.01
2018-06-02T04:57:49.628Z,26.01
2018-06-02T04:58:58.809Z,25.94
2018-06-02T05:00:08.234Z,25.98
2018-06-02T05:01:17.150Z,25.97
2018-06-02T05:02:26.831Z,25.95
2018-06-02T05:03:35.993Z,25.94
2018-06-02T05:04:45.684Z,25.97
2018-06-02T05:05:55.092Z,25.98
2018-06-02T05:07:04.515Z,25.97
2018-06-02T05:08:13.924Z,25.95
2018-06-02T05:09:23.338Z,25.94
2018-06-02T05:10:32.514Z,25.98
2018-06-02T05:11:42.453Z,25.95
2018-06-02T05:12:51.388Z,25.97
2018-06-02T05:14:00.542Z,25.99
2018-06-02T05:15:10.316Z,25.95
2018-06-02T05:16:19.530Z,25.91
2018-06-02T05:17:29.189Z,25.94
2018-06-02T05:18:38.597Z,25.92
2018-06-02T05:19:47.770Z,25.95
2018-06-02T05:20:57.184Z,25.98
2018-06-02T05:22:06.614Z,25.98
2018-06-02T05:23:15.513Z,25.95
2018-06-02T05:24:24.935Z,25.94
2018-06-02T05:25:34.093Z,25.94
2018-06-02T05:26:43.773Z,25.98
2018-06-02T05:27:53.440Z,25.95
2018-06-02T05:29:02.348Z,25.91
2018-06-02T05:30:11.779Z,25.95
2018-06-02T05:31:20.939Z,25.95
2018-06-02T05:32:30.617Z,25.91
2018-06-02T05:33:39.528Z,25.91
2018-06-02T05:34:48.951Z,25.95
2018-06-02T05:35:57.844Z,25.91
2018-06-02T05:37:07.517Z,25.92
2018-06-02T05:38:16.731Z,25.95
2018-06-02T05:39:25.894Z,25.92
2018-06-02T05:40:35.190Z,25.97
2018-06-02T05:41:44.608Z,25.9
2018-06-02T05:42:53.777Z,25.85
2018-06-02T05:44:02.964Z,25.91
2018-06-02T05:45:11.860Z,25.91
2018-06-02T05:46:21.275Z,25.91
2018-06-02T05:47:31.206Z,25.91
2018-06-02T05:48:40.881Z,25.92
2018-06-02T05:49:50.595Z,25.94
2018-06-02T05:50:59.761Z,25.91
2018-06-02T05:52:09.190Z,25.95
2018-06-02T05:53:19.131Z,25.94
2018-06-02T05:54:28.599Z,25.91
2018-06-02T05:55:38.374Z,25.92
2018-06-02T05:56:47.801Z,25.94
2018-06-02T05:57:56.978Z,25.92
2018-06-02T05:59:06.655Z,25.92
2018-06-02T06:00:16.330Z,25.92
2018-06-02T06:01:25.762Z,25.97
2018-06-02T06:02:34.918Z,25.91
2018-06-02T06:03:44.126Z,25.97
2018-06-02T06:04:53.811Z,25.9
2018-06-02T06:06:03.037Z,25.91
2018-06-02T06:07:12.443Z,25.91
2018-06-02T06:08:22.384Z,25.98
2018-06-02T06:09:32.326Z,25.95
2018-06-02T06:10:41.483Z,25.91
2018-06-02T06:11:50.917Z,25.98
2018-06-02T06:13:00.585Z,25.94
2018-06-02T06:14:10.005Z,25.9
2018-06-02T06:15:19.685Z,25.99
2018-06-02T06:16:28.844Z,25.92
2018-06-02T06:17:38.499Z,25.94
2018-06-02T06:18:47.925Z,25.95
2018-06-02T06:19:57.102Z,25.88
2018-06-02T06:21:06.799Z,25.95
2018-06-02T06:22:16.269Z,25.92
2018-06-02T06:23:25.680Z,25.91
2018-06-02T06:24:34.738Z,25.92
2018-06-02T06:25:44.679Z,25.92
2018-06-02T06:26:54.124Z,25.92
2018-06-02T06:28:03.980Z,25.94
2018-06-02T06:29:13.658Z,25.92
2018-06-02T06:30:23.321Z,25.91
2018-06-02T06:31:33.001Z,25.95
2018-06-02T06:32:42.437Z,25.92
2018-06-02T06:33:51.860Z,25.94
2018-06-02T06:35:00.510Z,25.91
2018-06-02T06:36:09.674Z,25.94
2018-06-02T06:37:19.153Z,25.92
2018-06-02T06:38:28.318Z,25.94
2018-06-02T06:39:38.012Z,25.91
2018-06-02T06:40:47.431Z,25.95
2018-06-02T06:41:56.857Z,25.94
2018-06-02T06:43:06.007Z,25.92
2018-06-02T06:44:15.417Z,25.91
2018-06-02T06:45:24.057Z,25.95
2018-06-02T06:46:33.913Z,25.94
2018-06-02T06:47:43.965Z,25.95
2018-06-02T06:48:52.871Z,25.92
2018-06-02T06:50:02.311Z,25.92
2018-06-02T06:51:12.031Z,25.92
2018-06-02T06:52:20.944Z,25.91
2018-06-02T06:53:30.126Z,25.94
2018-06-02T06:54:39.555Z,25.94
2018-06-02T06:55:48.482Z,25.97
2018-06-02T06:56:57.738Z,25.92
2018-06-02T06:58:07.670Z,25.94
2018-06-02T06:59:17.096Z,25.91
2018-06-02T07:00:26.780Z,25.95
2018-06-02T07:01:35.699Z,25.99
2018-06-02T07:02:45.408Z,25.92
2018-06-02T07:03:54.848Z,25.97
2018-06-02T07:05:04.257Z,25.94
2018-06-02T07:06:14.197Z,25.95
2018-06-02T07:07:23.343Z,25.92
2018-06-02T07:08:32.529Z,25.94
2018-06-02T07:09:41.732Z,25.97
2018-06-02T07:10:50.889Z,25.98
2018-06-02T07:12:00.385Z,25.97
2018-06-02T07:13:09.853Z,25.97
2018-06-02T07:14:19.279Z,25.97
2018-06-02T07:15:28.696Z,25.95
2018-06-02T07:16:38.382Z,25.97
2018-06-02T07:17:47.634Z,25.95
2018-06-02T07:18:56.897Z,25.94
2018-06-02T07:20:06.064Z,25.98
2018-06-02T07:21:14.971Z,25.94
2018-06-02T07:22:24.135Z,25.94
2018-06-02T07:23:33.539Z,25.99
2018-06-02T07:24:42.966Z,25.97
2018-06-02T07:25:52.413Z,25.99
2018-06-02T07:27:02.108Z,25.97
2018-06-02T07:28:11.015Z,25.95
2018-06-02T07:29:20.689Z,25.99
2018-06-02T07:30:29.881Z,25.97
2018-06-02T07:31:39.307Z,25.9
2018-06-02T07:32:48.476Z,25.97
2018-06-02T07:33:57.408Z,25.95
2018-06-02T07:35:06.851Z,25.95
2018-06-02T07:36:15.501Z,25.97
2018-06-02T07:37:25.193Z,25.99
2018-06-02T07:38:34.413Z,25.95
2018-06-02T07:39:43.613Z,25.97
2018-06-02T07:40:53.071Z,25.94
2018-06-02T07:42:02.501Z,25.94
2018-06-02T07:43:11.667Z,25.94
2018-06-02T07:44:21.837Z,25.97
2018-06-02T07:45:31.080Z,25.94
2018-06-02T07:46:40.518Z,25.97
2018-06-02T07:47:50.353Z,25.91
2018-06-02T07:48:59.523Z,25.94
2018-06-02T07:50:09.739Z,25.99
2018-06-02T07:51:19.398Z,25.94
2018-06-02T07:52:29.363Z,25.95
2018-06-02T07:53:38.773Z,25.98
2018-06-02T07:54:48.708Z,25.92
2018-06-02T07:55:58.179Z,26.05
2018-06-02T07:57:07.605Z,26.02
2018-06-02T07:58:16.763Z,25.95
2018-06-02T07:59:26.242Z,26.01
2018-06-02T08:00:35.685Z,25.98
2018-06-02T08:01:44.836Z,25.98
2018-06-02T08:02:53.980Z,25.99
2018-06-02T08:04:03.133Z,26.01
2018-06-02T08:05:12.590Z,25.99
2018-06-02T08:06:21.748Z,25.99
2018-06-02T08:07:30.907Z,25.95
2018-06-02T08:08:40.679Z,25.94
2018-06-02T08:09:50.188Z,26.02
2018-06-02T08:10:59.380Z,25.97
2018-06-02T08:12:09.068Z,26.01
2018-06-02T08:13:18.773Z,25.94
2018-06-02T08:14:28.211Z,25.98
2018-06-02T08:15:37.909Z,26.02
2018-06-02T08:16:47.364Z,25.98
2018-06-02T08:17:56.781Z,26.02
2018-06-02T08:19:06.454Z,25.94
2018-06-02T08:20:15.880Z,25.95
2018-06-02T08:21:25.323Z,25.98
2018-06-02T08:22:34.753Z,26.01
2018-06-02T08:23:44.160Z,25.99
2018-06-02T08:24:53.566Z,26.01
2018-06-02T08:26:03.008Z,25.95
2018-06-02T08:27:11.936Z,25.99
2018-06-02T08:28:21.857Z,25.99
2018-06-02T08:29:31.760Z,25.98
2018-06-02T08:30:40.824Z,26.02
2018-06-02T08:31:50.007Z,26.1
2018-06-02T08:32:58.930Z,25.97
2018-06-02T08:34:08.090Z,25.97
2018-06-02T08:35:17.310Z,25.97
2018-06-02T08:36:26.772Z,26.02
2018-06-02T08:37:36.449Z,25.94
2018-06-02T08:38:46.138Z,25.98
2018-06-02T08:39:56.578Z,26.01
2018-06-02T08:41:06.104Z,26.01
2018-06-02T08:42:15.819Z,25.98
2018-06-02T08:43:25.769Z,25.92
2018-06-02T08:44:35.191Z,25.94
2018-06-02T08:45:44.634Z,26.06
2018-06-02T08:46:54.088Z,25.97
2018-06-02T08:48:03.593Z,26.1
2018-06-02T08:49:13.324Z,25.94
2018-06-02T08:50:22.288Z,25.99
2018-06-02T08:51:31.864Z,25.97
2018-06-02T08:52:41.836Z,25.95
2018-06-02T08:53:51.032Z,25.92
2018-06-02T08:55:00.785Z,25.99
2018-06-02T08:56:09.977Z,25.99
2018-06-02T08:57:19.931Z,25.94
2018-06-02T08:58:29.113Z,25.98
2018-06-02T08:59:38.554Z,25.97
2018-06-02T09:00:47.723Z,26.01
2018-06-02T09:01:56.904Z,25.95
2018-06-02T09:03:06.347Z,25.97
2018-06-02T09:04:15.830Z,25.95
2018-06-02T09:05:25.050Z,25.99
2018-06-02T09:06:34.662Z,25.94
2018-06-02T09:07:44.422Z,25.97
2018-06-02T09:08:53.922Z,26.01
2018-06-02T09:10:02.643Z,25.92
2018-06-02T09:11:12.056Z,26.01
2018-06-02T09:12:21.473Z,26.05
2018-06-02T09:13:31.188Z,25.95
2018-06-02T09:14:40.926Z,26.01
2018-06-02T09:15:50.386Z,25.99
2018-06-02T09:16:59.047Z,26.01
2018-06-02T09:18:08.211Z,25.99
2018-06-02T09:19:17.424Z,25.99
2018-06-02T09:20:27.399Z,25.94
2018-06-02T09:21:37.092Z,25.99
2018-06-02T09:22:45.994Z,26.05
2018-06-02T09:23:55.699Z,26.02
2018-06-02T09:25:04.852Z,25.98
2018-06-02T09:26:14.007Z,25.9
2018-06-02T09:27:22.910Z,25.99
2018-06-02T09:28:32.327Z,25.92
2018-06-02T09:29:41.787Z,26.02
2018-06-02T09:30:51.495Z,26.05
2018-06-02T09:32:01.184Z,25.92
2018-06-02T09:33:10.874Z,26.02
2018-06-02T09:34:20.420Z,26.02
2018-06-02T09:35:29.908Z,26.05
2018-06-02T09:36:39.316Z,26.05
2018-06-02T09:37:48.484Z,25.98
2018-06-02T09:38:58.159Z,26.01
2018-06-02T09:40:07.059Z,25.97
2018-06-02T09:41:16.737Z,25.98
2018-06-02T09:42:26.413Z,26.06
2018-06-02T09:43:35.845Z,25.95
2018-06-02T09:44:45.924Z,25.98
2018-06-02T09:45:55.188Z,25.98
2018-06-02T09:47:04.680Z,25.99
2018-06-02T09:48:13.869Z,25.97
2018-06-02T09:49:23.632Z,25.99
2018-06-02T09:50:32.526Z,25.99
2018-06-02T09:51:41.979Z,26.02
2018-06-02T09:52:51.399Z,26.06
2018-06-02T09:54:01.089Z,26.02
2018-06-02T09:55:10.765Z,26.01
2018-06-02T09:56:20.459Z,26.09
2018-06-02T09:57:29.626Z,26.02
2018-06-02T09:58:39.072Z,26.09
2018-06-02T09:59:48.249Z,25.95
2018-06-02T10:00:57.720Z,26.13
2018-06-02T10:02:06.904Z,26.02
2018-06-02T10:03:16.868Z,26.15
2018-06-02T10:04:26.330Z,25.99
2018-06-02T10:05:35.798Z,26.05
2018-06-02T10:06:45.245Z,26.09
2018-06-02T10:07:54.704Z,26.09
2018-06-02T10:09:03.905Z,26.1
2018-06-02T10:10:13.339Z,26.1
2018-06-02T10:11:23.093Z,26.15
2018-06-02T10:12:33.070Z,26.1
2018-06-02T10:13:42.274Z,26.1
2018-06-02T10:14:51.965Z,26.12
2018-06-02T10:16:01.906Z,26.13
2018-06-02T10:17:11.332Z,26.13
2018-06-02T10:18:21.011Z,26.13
2018-06-02T10:19:29.983Z,26.1
2018-06-02T10:20:39.407Z,26.13
2018-06-02T10:21:49.125Z,26.12
2018-06-02T10:22:58.330Z,26.13
2018-06-02T10:24:08.208Z,26.12
2018-06-02T10:25:17.702Z,26.1
2018-06-02T10:26:27.139Z,26.12
2018-06-02T10:27:36.294Z,26.12
2018-06-02T10:28:45.760Z,26.13
2018-06-02T10:29:55.206Z,26.07
2018-06-02T10:31:04.399Z,26.12
2018-06-02T10:32:13.848Z,26.1
2018-06-02T10:33:23.019Z,26.13
2018-06-02T10:34:32.495Z,26.1
2018-06-02T10:35:42.522Z,26.13
2018-06-02T10:36:52.081Z,26.01
2018-06-02T10:38:01.254Z,26.09
2018-06-02T10:39:10.493Z,26.1
2018-06-02T10:40:19.932Z,26.12
2018-06-02T10:41:29.407Z,26.12
2018-06-02T10:42:38.571Z,26.05
2018-06-02T10:43:48.024Z,26.07
2018-06-02T10:44:57.490Z,26.1
2018-06-02T10:46:07.428Z,26.12
2018-06-02T10:47:16.596Z,26.12
2018-06-02T10:48:26.284Z,26.13
2018-06-02T10:49:35.461Z,26.12
2018-06-02T10:50:44.634Z,26.12
2018-06-02T10:51:54.573Z,26.12
2018-06-02T10:53:03.749Z,26.2
2018-06-02T10:54:12.915Z,26.05
2018-06-02T10:55:21.804Z,26.09
2018-06-02T10:56:31.743Z,26.13
2018-06-02T10:57:41.445Z,26.09
2018-06-02T10:58:50.868Z,26.13
2018-06-02T11:00:00.552Z,26.09
2018-06-02T11:01:09.968Z,26.13
2018-06-02T11:02:19.397Z,26.17
2018-06-02T11:03:28.834Z,26.09
2018-06-02T11:04:37.774Z,26.23
2018-06-02T11:05:47.490Z,26.17
2018-06-02T11:06:57.176Z,26.09
2018-06-02T11:08:07.148Z,26.13
2018-06-02T11:09:16.323Z,26.2
2018-06-02T11:10:26.001Z,26.23
2018-06-02T11:11:35.696Z,26.18
2018-06-02T11:12:44.856Z,26.07
2018-06-02T11:13:54.577Z,26.09
2018-06-02T11:15:04.009Z,26.2
2018-06-02T11:16:13.685Z,26.2
2018-06-02T11:17:23.636Z,26.18
2018-06-02T11:18:32.813Z,26.15
2018-06-02T11:19:42.676Z,26.17
2018-06-02T11:20:52.373Z,26.25
2018-06-02T11:22:02.104Z,26.26
2018-06-02T11:23:11.596Z,26.2
2018-06-02T11:24:21.298Z,26.21
2018-06-02T11:25:30.995Z,26.23
2018-06-02T11:26:40.462Z,26.26
2018-06-02T11:27:49.674Z,26.28
2018-06-02T11:28:58.893Z,26.21
2018-06-02T11:30:08.353Z,26.26
2018-06-02T11:31:17.545Z,26.2
2018-06-02T11:32:26.766Z,26.18
2018-06-02T11:33:36.204Z,26.2
2018-06-02T11:34:45.392Z,26.3
2018-06-02T11:35:54.931Z,26.25
2018-06-02T11:37:04.411Z,26.28
2018-06-02T11:38:13.623Z,26.23
2018-06-02T11:39:22.818Z,26.28
2018-06-02T11:40:32.041Z,26.21
2018-06-02T11:41:41.219Z,26.33
2018-06-02T11:42:51.158Z,26.3
2018-06-02T11:44:00.616Z,26.21
2018-06-02T11:45:10.675Z,26.26
2018-06-02T11:46:19.881Z,26.25
2018-06-02T11:47:29.294Z,26.3
2018-06-02T11:48:38.980Z,26.32
2018-06-02T11:49:48.487Z,26.33
2018-06-02T11:50:57.685Z,26.35
2018-06-02T11:52:07.098Z,26.29
2018-06-02T11:53:16.550Z,26.26
2018-06-02T11:54:25.772Z,26.29
2018-06-02T11:55:34.989Z,26.29
2018-06-02T11:56:44.763Z,26.32
2018-06-02T11:57:54.216Z,26.33
2018-06-02T11:59:03.408Z,26.26
2018-06-02T12:00:12.617Z,26.26
2018-06-02T12:01:21.807Z,26.25
2018-06-02T12:02:31.254Z,26.32
2018-06-02T12:03:41.391Z,26.3
2018-06-02T12:04:51.109Z,26.26
2018-06-02T12:06:00.794Z,26.32
2018-06-02T12:07:09.761Z,26.28
2018-06-02T12:08:19.212Z,26.29
2018-06-02T12:09:28.448Z,26.21
2018-06-02T12:10:37.635Z,26.29
2018-06-02T12:11:47.096Z,26.28
2018-06-02T12:12:56.597Z,26.3
2018-06-02T12:14:05.789Z,26.28
2018-06-02T12:15:15.264Z,26.36
2018-06-02T12:16:24.885Z,26.3
2018-06-02T12:17:34.839Z,26.26
2018-06-02T12:18:44.571Z,26.3
2018-06-02T12:19:54.316Z,26.28
2018-06-02T12:21:04.011Z,26.36
2018-06-02T12:22:13.475Z,26.32
2018-06-02T12:23:22.161Z,26.28
2018-06-02T12:24:31.346Z,26.32
2018-06-02T12:25:40.785Z,26.3
2018-06-02T12:26:50.753Z,26.33
2018-06-02T12:27:59.925Z,26.3
2018-06-02T12:29:09.138Z,26.29
2018-06-02T12:30:18.087Z,26.28
2018-06-02T12:31:27.540Z,26.26
2018-06-02T12:32:36.942Z,26.32
2018-06-02T12:33:46.682Z,26.32
2018-06-02T12:34:56.383Z,26.33
2018-06-02T12:36:05.848Z,26.36
2018-06-02T12:37:15.075Z,26.33
2018-06-02T12:38:24.510Z,26.33
2018-06-02T12:39:33.424Z,26.33
2018-06-02T12:40:42.576Z,26.39
2018-06-02T12:41:52.273Z,26.32
2018-06-02T12:43:01.752Z,26.37
2018-06-02T12:44:11.194Z,26.35
2018-06-02T12:45:20.643Z,26.37
2018-06-02T12:46:30.334Z,26.39
2018-06-02T12:47:39.868Z,26.39
2018-06-02T12:48:49.066Z,26.43
2018-06-02T12:49:57.996Z,26.37
2018-06-02T12:51:06.918Z,26.39
2018-06-02T12:52:16.133Z,26.39
2018-06-02T12:53:25.672Z,26.44
2018-06-02T12:54:35.406Z,26.36
2018-06-02T12:55:45.125Z,26.4
2018-06-02T12:56:55.057Z,26.39
2018-06-02T12:58:04.746Z,26.36
2018-06-02T12:59:14.169Z,26.45
2018-06-02T13:00:23.597Z,26.4
2018-06-02T13:01:33.294Z,26.37
2018-06-02T13:02:42.730Z,26.44
2018-06-02T13:03:52.154Z,26.43
2018-06-02T13:05:01.577Z,26.43
2018-06-02T13:06:11.030Z,26.44
2018-06-02T13:07:20.440Z,26.44
2018-06-02T13:08:30.126Z,26.44
2018-06-02T13:09:39.807Z,26.47
2018-06-02T13:10:49.787Z,26.45
2018-06-02T13:11:59.227Z,26.45
2018-06-02T13:13:08.674Z,26.43
2018-06-02T13:14:18.358Z,26.44
2018-06-02T13:15:27.781Z,26.48
2018-06-02T13:16:37.480Z,26.47
2018-06-02T13:17:46.648Z,26.45
2018-06-02T13:18:56.079Z,26.45
2018-06-02T13:20:05.513Z,26.44
2018-06-02T13:21:15.770Z,26.43
2018-06-02T13:22:25.315Z,26.5
2018-06-02T13:23:34.731Z,26.45
2018-06-02T13:24:44.207Z,26.47
2018-06-02T13:25:54.136Z,26.52
2018-06-02T13:27:03.291Z,26.47
2018-06-02T13:28:12.206Z,26.51
2018-06-02T13:29:21.637Z,26.5
2018-06-02T13:30:31.078Z,26.55
2018-06-02T13:31:40.268Z,26.51
2018-06-02T13:32:49.690Z,26.51
2018-06-02T13:33:59.099Z,26.54
2018-06-02T13:35:08.794Z,26.52
2018-06-02T13:36:18.507Z,26.47
2018-06-02T13:37:27.938Z,26.54
2018-06-02T13:38:37.099Z,26.54
2018-06-02T13:39:46.527Z,26.6
2018-06-02T13:40:56.002Z,26.55
2018-06-02T13:42:05.181Z,26.5
2018-06-02T13:43:14.354Z,26.5
2018-06-02T13:44:24.340Z,26.6
2018-06-02T13:45:33.765Z,26.58
2018-06-02T13:46:43.195Z,26.63
2018-06-02T13:47:52.613Z,26.57
2018-06-02T13:49:02.062Z,26.62
2018-06-02T13:50:11.235Z,26.54
2018-06-02T13:51:20.152Z,26.6
2018-06-02T13:52:30.025Z,26.62
2018-06-02T13:53:39.191Z,26.57
2018-06-02T13:54:48.371Z,26.57
2018-06-02T13:55:57.279Z,26.63
2018-06-02T13:57:06.513Z,26.6
2018-06-02T13:58:15.923Z,26.6
2018-06-02T13:59:24.837Z,26.63
2018-06-02T14:00:34.252Z,26.63
2018-06-02T14:01:43.912Z,26.62
2018-06-02T14:02:53.102Z,26.57
2018-06-02T14:04:02.545Z,26.67
2018-06-02T14:05:11.475Z,26.63
2018-06-02T14:06:21.163Z,26.62
2018-06-02T14:07:30.330Z,26.62
2018-06-02T14:08:40.269Z,26.54
2018-06-02T14:09:49.951Z,26.58
2018-06-02T14:10:58.867Z,26.66
2018-06-02T14:12:08.047Z,26.6
2018-06-02T14:13:17.231Z,26.63
2018-06-02T14:14:26.663Z,26.6
2018-06-02T14:15:36.121Z,26.6
2018-06-02T14:16:45.556Z,26.67
2018-06-02T14:17:54.974Z,26.65
2018-06-02T14:19:04.688Z,26.66
2018-06-02T14:20:13.894Z,26.63
2018-06-02T14:21:23.052Z,26.63
2018-06-02T14:22:31.716Z,26.66
2018-06-02T14:23:40.917Z,26.63
2018-06-02T14:24:50.363Z,26.62
2018-06-02T14:26:00.106Z,26.58
2018-06-02T14:27:09.296Z,26.63
2018-06-02T14:28:19.002Z,26.65
2018-06-02T14:29:28.413Z,26.63
2018-06-02T14:30:37.838Z,26.58
2018-06-02T14:31:47.014Z,26.66
2018-06-02T14:32:56.688Z,26.62
2018-06-02T14:34:05.891Z,26.72
2018-06-02T14:35:15.581Z,26.77
2018-06-02T14:36:25.057Z,26.69
2018-06-02T14:37:34.258Z,26.7
2018-06-02T14:38:43.427Z,26.77
2018-06-02T14:39:52.598Z,26.67
2018-06-02T14:41:02.664Z,26.69
2018-06-02T14:42:12.345Z,26.76
2018-06-02T14:43:21.772Z,26.76
2018-06-02T14:44:31.459Z,26.81
2018-06-02T14:45:40.607Z,26.76
2018-06-02T14:46:50.290Z,26.82
2018-06-02T14:47:59.738Z,26.87
2018-06-02T14:49:09.755Z,26.82
2018-06-02T14:50:19.417Z,26.85
2018-06-02T14:51:29.104Z,26.89
2018-06-02T14:52:39.033Z,26.85
2018-06-02T14:53:48.727Z,26.85
2018-06-02T14:54:58.242Z,26.81
2018-06-02T14:56:07.803Z,26.82
2018-06-02T14:57:16.731Z,26.91